sensor_id;sensor_type;location;lat;lon;timestamp;P1;durP1;ratioP1;P2;durP2;ratioP2
75417;SDS011;63997;52.112;5.420;2023-07-13T00:02:18;10.95;;;1.00;;
75417;SDS011;63997;52.112;5.420;2023-07-13T00:04:45;10.93;;;1.67;;
75417;SDS011;63997;52.112;5.420;2023-07-13T00:07:11;9.27;;;1.43;;
75417;SDS011;63997;52.112;5.420;2023-07-13T00:09:40;5.45;;;0.90;;
75417;SDS011;63997;52.112;5.420;2023-07-13T00:12:21;4.20;;;1.10;;
75417;SDS011;63997;52.112;5.420;2023-07-13T00:15:00;6.55;;;1.02;;
75417;SDS011;63997;52.112;5.420;2023-07-13T00:17:28;12.45;;;0.93;;
75417;SDS011;63997;52.112;5.420;2023-07-13T00:19:55;6.37;;;0.70;;
75417;SDS011;63997;52.112;5.420;2023-07-13T00:22:23;6.30;;;0.80;;
75417;SDS011;63997;52.112;5.420;2023-07-13T00:24:53;6.15;;;1.25;;
75417;SDS011;63997;52.112;5.420;2023-07-13T00:27:22;4.00;;;0.88;;
75417;SDS011;63997;52.112;5.420;2023-07-13T00:29:49;7.15;;;1.02;;
75417;SDS011;63997;52.112;5.420;2023-07-13T00:32:15;5.63;;;1.30;;
75417;SDS011;63997;52.112;5.420;2023-07-13T00:34:42;7.35;;;1.15;;
75417;SDS011;63997;52.112;5.420;2023-07-13T00:37:09;2.83;;;0.90;;
75417;SDS011;63997;52.112;5.420;2023-07-13T00:39:37;7.30;;;1.55;;
75417;SDS011;63997;52.112;5.420;2023-07-13T00:42:05;7.57;;;1.10;;
75417;SDS011;63997;52.112;5.420;2023-07-13T00:44:32;6.80;;;0.90;;
75417;SDS011;63997;52.112;5.420;2023-07-13T00:46:59;3.92;;;0.82;;
75417;SDS011;63997;52.112;5.420;2023-07-13T00:49:26;8.38;;;1.08;;
75417;SDS011;63997;52.112;5.420;2023-07-13T00:51:59;8.35;;;1.10;;
75417;SDS011;63997;52.112;5.420;2023-07-13T00:54:30;7.90;;;1.10;;
75417;SDS011;63997;52.112;5.420;2023-07-13T00:57:02;6.07;;;1.27;;
75417;SDS011;63997;52.112;5.420;2023-07-13T00:59:32;5.30;;;0.73;;
75417;SDS011;63997;52.112;5.420;2023-07-13T01:02:01;6.25;;;0.93;;
75417;SDS011;63997;52.112;5.420;2023-07-13T01:04:28;5.97;;;0.95;;
75417;SDS011;63997;52.112;5.420;2023-07-13T01:06:56;2.70;;;0.90;;
75417;SDS011;63997;52.112;5.420;2023-07-13T01:09:25;5.43;;;1.00;;
75417;SDS011;63997;52.112;5.420;2023-07-13T01:11:52;5.38;;;0.90;;
75417;SDS011;63997;52.112;5.420;2023-07-13T01:14:19;5.50;;;1.02;;
75417;SDS011;63997;52.112;5.420;2023-07-13T01:16:46;6.60;;;1.40;;
75417;SDS011;63997;52.112;5.420;2023-07-13T01:22:06;6.63;;;1.67;;
75417;SDS011;63997;52.112;5.420;2023-07-13T01:24:42;7.00;;;1.27;;
75417;SDS011;63997;52.112;5.420;2023-07-13T01:27:11;6.25;;;1.00;;
75417;SDS011;63997;52.112;5.420;2023-07-13T01:29:42;4.15;;;0.93;;
75417;SDS011;63997;52.112;5.420;2023-07-13T01:32:15;3.60;;;1.20;;
75417;SDS011;63997;52.112;5.420;2023-07-13T01:34:49;8.17;;;0.90;;
75417;SDS011;63997;52.112;5.420;2023-07-13T01:37:23;2.85;;;0.88;;
75417;SDS011;63997;52.112;5.420;2023-07-13T01:39:51;9.05;;;1.20;;
75417;SDS011;63997;52.112;5.420;2023-07-13T01:42:18;4.80;;;0.88;;
75417;SDS011;63997;52.112;5.420;2023-07-13T01:44:44;5.85;;;1.33;;
75417;SDS011;63997;52.112;5.420;2023-07-13T01:47:11;7.97;;;1.17;;
75417;SDS011;63997;52.112;5.420;2023-07-13T01:49:37;5.75;;;1.40;;
75417;SDS011;63997;52.112;5.420;2023-07-13T01:52:04;6.95;;;0.80;;
75417;SDS011;63997;52.112;5.420;2023-07-13T01:54:31;7.47;;;1.10;;
75417;SDS011;63997;52.112;5.420;2023-07-13T01:56:57;6.95;;;1.27;;
75417;SDS011;63997;52.112;5.420;2023-07-13T01:59:24;7.17;;;1.20;;
75417;SDS011;63997;52.112;5.420;2023-07-13T02:01:50;6.65;;;1.10;;
75417;SDS011;63997;52.112;5.420;2023-07-13T02:04:17;5.82;;;1.17;;
75417;SDS011;63997;52.112;5.420;2023-07-13T02:06:43;6.10;;;0.95;;
75417;SDS011;63997;52.112;5.420;2023-07-13T02:09:10;5.15;;;1.50;;
75417;SDS011;63997;52.112;5.420;2023-07-13T02:11:36;2.77;;;0.80;;
75417;SDS011;63997;52.112;5.420;2023-07-13T02:14:03;5.47;;;1.38;;
75417;SDS011;63997;52.112;5.420;2023-07-13T02:16:29;11.95;;;1.92;;
75417;SDS011;63997;52.112;5.420;2023-07-13T02:18:57;6.35;;;1.10;;
75417;SDS011;63997;52.112;5.420;2023-07-13T02:21:23;5.90;;;1.45;;
75417;SDS011;63997;52.112;5.420;2023-07-13T02:23:50;4.87;;;1.67;;
75417;SDS011;63997;52.112;5.420;2023-07-13T02:26:16;5.45;;;1.38;;
75417;SDS011;63997;52.112;5.420;2023-07-13T02:28:43;8.63;;;1.25;;
75417;SDS011;63997;52.112;5.420;2023-07-13T02:31:11;7.97;;;1.20;;
75417;SDS011;63997;52.112;5.420;2023-07-13T02:33:39;5.90;;;1.30;;
75417;SDS011;63997;52.112;5.420;2023-07-13T02:36:06;5.63;;;1.10;;
75417;SDS011;63997;52.112;5.420;2023-07-13T02:38:33;6.55;;;1.10;;
75417;SDS011;63997;52.112;5.420;2023-07-13T02:41:00;5.25;;;1.30;;
75417;SDS011;63997;52.112;5.420;2023-07-13T02:43:27;4.32;;;1.08;;
75417;SDS011;63997;52.112;5.420;2023-07-13T02:45:54;5.60;;;1.20;;
75417;SDS011;63997;52.112;5.420;2023-07-13T02:48:20;8.17;;;1.40;;
75417;SDS011;63997;52.112;5.420;2023-07-13T02:50:47;3.95;;;1.50;;
75417;SDS011;63997;52.112;5.420;2023-07-13T02:53:13;3.80;;;1.20;;
75417;SDS011;63997;52.112;5.420;2023-07-13T02:55:40;7.40;;;1.60;;
75417;SDS011;63997;52.112;5.420;2023-07-13T02:58:07;7.65;;;1.40;;
75417;SDS011;63997;52.112;5.420;2023-07-13T03:00:33;5.70;;;1.33;;
75417;SDS011;63997;52.112;5.420;2023-07-13T03:03:00;4.78;;;1.10;;
75417;SDS011;63997;52.112;5.420;2023-07-13T03:05:27;5.47;;;1.33;;
75417;SDS011;63997;52.112;5.420;2023-07-13T03:07:53;5.55;;;1.40;;
75417;SDS011;63997;52.112;5.420;2023-07-13T03:10:20;4.63;;;1.33;;
75417;SDS011;63997;52.112;5.420;2023-07-13T03:12:46;4.03;;;1.27;;
75417;SDS011;63997;52.112;5.420;2023-07-13T03:15:13;6.03;;;1.30;;
75417;SDS011;63997;52.112;5.420;2023-07-13T03:17:39;5.03;;;1.60;;
75417;SDS011;63997;52.112;5.420;2023-07-13T03:20:06;7.20;;;1.50;;
75417;SDS011;63997;52.112;5.420;2023-07-13T03:22:33;10.50;;;1.80;;
75417;SDS011;63997;52.112;5.420;2023-07-13T03:25:00;6.10;;;1.43;;
75417;SDS011;63997;52.112;5.420;2023-07-13T03:27:26;7.22;;;2.45;;
75417;SDS011;63997;52.112;5.420;2023-07-13T03:29:59;5.95;;;1.80;;
75417;SDS011;63997;52.112;5.420;2023-07-13T03:32:26;8.32;;;1.67;;
75417;SDS011;63997;52.112;5.420;2023-07-13T03:34:52;5.97;;;1.60;;
75417;SDS011;63997;52.112;5.420;2023-07-13T03:37:19;9.67;;;2.33;;
75417;SDS011;63997;52.112;5.420;2023-07-13T03:39:46;8.30;;;1.70;;
75417;SDS011;63997;52.112;5.420;2023-07-13T03:42:12;6.45;;;1.40;;
75417;SDS011;63997;52.112;5.420;2023-07-13T03:44:40;10.02;;;1.90;;
75417;SDS011;63997;52.112;5.420;2023-07-13T03:47:07;8.02;;;2.00;;
75417;SDS011;63997;52.112;5.420;2023-07-13T03:49:35;4.30;;;1.60;;
75417;SDS011;63997;52.112;5.420;2023-07-13T03:52:01;5.40;;;2.13;;
75417;SDS011;63997;52.112;5.420;2023-07-13T03:54:28;7.38;;;2.20;;
75417;SDS011;63997;52.112;5.420;2023-07-13T03:56:54;6.30;;;1.75;;
75417;SDS011;63997;52.112;5.420;2023-07-13T03:59:21;10.75;;;2.20;;
75417;SDS011;63997;52.112;5.420;2023-07-13T04:01:48;5.53;;;1.53;;
75417;SDS011;63997;52.112;5.420;2023-07-13T04:04:14;10.32;;;2.38;;
75417;SDS011;63997;52.112;5.420;2023-07-13T04:06:42;7.75;;;2.40;;
75417;SDS011;63997;52.112;5.420;2023-07-13T04:09:08;14.52;;;2.40;;
75417;SDS011;63997;52.112;5.420;2023-07-13T04:11:35;7.43;;;2.08;;
75417;SDS011;63997;52.112;5.420;2023-07-13T04:14:04;6.30;;;1.33;;
75417;SDS011;63997;52.112;5.420;2023-07-13T04:16:31;10.25;;;2.17;;
75417;SDS011;63997;52.112;5.420;2023-07-13T04:18:57;8.88;;;2.00;;
75417;SDS011;63997;52.112;5.420;2023-07-13T04:21:28;11.90;;;2.20;;
75417;SDS011;63997;52.112;5.420;2023-07-13T04:23:56;10.18;;;2.30;;
75417;SDS011;63997;52.112;5.420;2023-07-13T04:26:23;9.37;;;2.50;;
75417;SDS011;63997;52.112;5.420;2023-07-13T04:28:50;8.80;;;2.28;;
75417;SDS011;63997;52.112;5.420;2023-07-13T04:31:17;9.25;;;2.15;;
75417;SDS011;63997;52.112;5.420;2023-07-13T04:33:44;9.40;;;2.47;;
75417;SDS011;63997;52.112;5.420;2023-07-13T04:36:14;13.75;;;3.30;;
75417;SDS011;63997;52.112;5.420;2023-07-13T04:38:41;9.87;;;2.70;;
75417;SDS011;63997;52.112;5.420;2023-07-13T04:41:08;11.35;;;2.78;;
75417;SDS011;63997;52.112;5.420;2023-07-13T04:43:35;8.00;;;2.47;;
75417;SDS011;63997;52.112;5.420;2023-07-13T04:46:03;14.00;;;2.70;;
75417;SDS011;63997;52.112;5.420;2023-07-13T04:48:37;9.07;;;2.60;;
75417;SDS011;63997;52.112;5.420;2023-07-13T04:51:04;10.83;;;2.20;;
75417;SDS011;63997;52.112;5.420;2023-07-13T04:53:30;9.70;;;2.40;;
75417;SDS011;63997;52.112;5.420;2023-07-13T04:55:58;11.30;;;2.83;;
75417;SDS011;63997;52.112;5.420;2023-07-13T04:58:25;13.57;;;3.00;;
75417;SDS011;63997;52.112;5.420;2023-07-13T05:00:52;5.53;;;2.25;;
75417;SDS011;63997;52.112;5.420;2023-07-13T05:03:18;8.07;;;2.20;;
75417;SDS011;63997;52.112;5.420;2023-07-13T05:05:54;9.93;;;2.70;;
75417;SDS011;63997;52.112;5.420;2023-07-13T05:08:25;10.15;;;1.83;;
75417;SDS011;63997;52.112;5.420;2023-07-13T05:10:52;12.20;;;3.28;;
75417;SDS011;63997;52.112;5.420;2023-07-13T05:13:19;13.75;;;2.75;;
75417;SDS011;63997;52.112;5.420;2023-07-13T05:15:47;13.67;;;2.47;;
75417;SDS011;63997;52.112;5.420;2023-07-13T05:18:21;8.95;;;3.10;;
75417;SDS011;63997;52.112;5.420;2023-07-13T05:20:54;9.75;;;3.00;;
75417;SDS011;63997;52.112;5.420;2023-07-13T05:23:23;12.27;;;3.00;;
75417;SDS011;63997;52.112;5.420;2023-07-13T05:25:49;10.25;;;2.95;;
75417;SDS011;63997;52.112;5.420;2023-07-13T05:28:16;16.60;;;3.20;;
75417;SDS011;63997;52.112;5.420;2023-07-13T05:30:46;14.65;;;2.85;;
75417;SDS011;63997;52.112;5.420;2023-07-13T05:33:14;8.70;;;2.58;;
75417;SDS011;63997;52.112;5.420;2023-07-13T05:35:40;11.10;;;3.10;;
75417;SDS011;63997;52.112;5.420;2023-07-13T05:38:07;12.48;;;3.25;;
75417;SDS011;63997;52.112;5.420;2023-07-13T05:40:33;14.17;;;4.63;;
75417;SDS011;63997;52.112;5.420;2023-07-13T05:43:00;18.33;;;4.18;;
75417;SDS011;63997;52.112;5.420;2023-07-13T05:45:26;13.35;;;4.07;;
75417;SDS011;63997;52.112;5.420;2023-07-13T05:47:53;16.80;;;5.03;;
75417;SDS011;63997;52.112;5.420;2023-07-13T05:50:19;15.57;;;5.05;;
75417;SDS011;63997;52.112;5.420;2023-07-13T05:52:46;16.07;;;5.03;;
75417;SDS011;63997;52.112;5.420;2023-07-13T05:55:14;19.95;;;5.80;;
75417;SDS011;63997;52.112;5.420;2023-07-13T05:57:41;13.40;;;5.50;;
75417;SDS011;63997;52.112;5.420;2023-07-13T06:00:08;15.13;;;5.28;;
75417;SDS011;63997;52.112;5.420;2023-07-13T06:02:35;15.93;;;5.18;;
75417;SDS011;63997;52.112;5.420;2023-07-13T06:05:02;14.57;;;5.23;;
75417;SDS011;63997;52.112;5.420;2023-07-13T06:07:28;15.15;;;4.97;;
75417;SDS011;63997;52.112;5.420;2023-07-13T06:09:55;13.88;;;5.28;;
75417;SDS011;63997;52.112;5.420;2023-07-13T06:12:22;21.90;;;5.95;;
75417;SDS011;63997;52.112;5.420;2023-07-13T06:14:48;15.13;;;5.55;;
75417;SDS011;63997;52.112;5.420;2023-07-13T06:17:15;13.63;;;6.17;;
75417;SDS011;63997;52.112;5.420;2023-07-13T06:19:41;14.20;;;6.03;;
75417;SDS011;63997;52.112;5.420;2023-07-13T06:22:08;17.10;;;6.40;;
75417;SDS011;63997;52.112;5.420;2023-07-13T06:24:34;14.93;;;5.63;;
75417;SDS011;63997;52.112;5.420;2023-07-13T06:27:01;16.38;;;6.65;;
75417;SDS011;63997;52.112;5.420;2023-07-13T06:29:28;14.90;;;5.63;;
75417;SDS011;63997;52.112;5.420;2023-07-13T06:31:54;11.85;;;6.20;;
75417;SDS011;63997;52.112;5.420;2023-07-13T06:34:21;13.23;;;6.15;;
75417;SDS011;63997;52.112;5.420;2023-07-13T06:36:47;20.23;;;6.65;;
75417;SDS011;63997;52.112;5.420;2023-07-13T06:39:14;17.02;;;6.70;;
75417;SDS011;63997;52.112;5.420;2023-07-13T06:41:40;21.00;;;7.17;;
75417;SDS011;63997;52.112;5.420;2023-07-13T06:44:07;16.50;;;6.80;;
75417;SDS011;63997;52.112;5.420;2023-07-13T06:46:33;15.10;;;6.07;;
75417;SDS011;63997;52.112;5.420;2023-07-13T06:49:00;14.93;;;6.05;;
75417;SDS011;63997;52.112;5.420;2023-07-13T06:51:26;14.57;;;6.68;;
75417;SDS011;63997;52.112;5.420;2023-07-13T06:53:53;14.03;;;6.90;;
75417;SDS011;63997;52.112;5.420;2023-07-13T06:56:20;14.68;;;6.43;;
75417;SDS011;63997;52.112;5.420;2023-07-13T06:58:46;17.08;;;7.25;;
75417;SDS011;63997;52.112;5.420;2023-07-13T07:01:13;17.27;;;6.75;;
75417;SDS011;63997;52.112;5.420;2023-07-13T07:03:41;21.27;;;6.78;;
75417;SDS011;63997;52.112;5.420;2023-07-13T07:06:15;16.87;;;6.43;;
75417;SDS011;63997;52.112;5.420;2023-07-13T07:08:43;17.52;;;8.00;;
75417;SDS011;63997;52.112;5.420;2023-07-13T07:11:12;14.18;;;7.43;;
75417;SDS011;63997;52.112;5.420;2023-07-13T07:13:40;13.20;;;8.05;;
75417;SDS011;63997;52.112;5.420;2023-07-13T07:16:06;18.88;;;8.10;;
75417;SDS011;63997;52.112;5.420;2023-07-13T07:18:33;23.30;;;7.83;;
75417;SDS011;63997;52.112;5.420;2023-07-13T07:20:59;21.02;;;7.65;;
75417;SDS011;63997;52.112;5.420;2023-07-13T07:23:26;16.10;;;7.25;;
75417;SDS011;63997;52.112;5.420;2023-07-13T07:25:52;12.98;;;6.72;;
75417;SDS011;63997;52.112;5.420;2023-07-13T07:28:19;16.20;;;6.63;;
75417;SDS011;63997;52.112;5.420;2023-07-13T07:30:52;14.40;;;6.47;;
75417;SDS011;63997;52.112;5.420;2023-07-13T07:33:39;17.85;;;6.93;;
75417;SDS011;63997;52.112;5.420;2023-07-13T07:36:06;17.80;;;7.57;;
75417;SDS011;63997;52.112;5.420;2023-07-13T07:38:35;9.93;;;6.53;;
75417;SDS011;63997;52.112;5.420;2023-07-13T07:41:03;16.60;;;7.68;;
75417;SDS011;63997;52.112;5.420;2023-07-13T07:43:33;14.27;;;7.20;;
75417;SDS011;63997;52.112;5.420;2023-07-13T07:46:00;17.00;;;7.18;;
75417;SDS011;63997;52.112;5.420;2023-07-13T07:48:33;13.68;;;8.23;;
75417;SDS011;63997;52.112;5.420;2023-07-13T07:50:59;14.35;;;7.35;;
75417;SDS011;63997;52.112;5.420;2023-07-13T07:53:26;12.93;;;6.95;;
75417;SDS011;63997;52.112;5.420;2023-07-13T07:55:52;13.20;;;6.23;;
75417;SDS011;63997;52.112;5.420;2023-07-13T07:58:22;12.80;;;6.22;;
75417;SDS011;63997;52.112;5.420;2023-07-13T08:00:51;14.73;;;6.95;;
75417;SDS011;63997;52.112;5.420;2023-07-13T08:03:21;16.20;;;7.03;;
75417;SDS011;63997;52.112;5.420;2023-07-13T08:05:52;16.60;;;7.05;;
75417;SDS011;63997;52.112;5.420;2023-07-13T08:08:22;14.43;;;6.57;;
75417;SDS011;63997;52.112;5.420;2023-07-13T08:10:49;13.35;;;6.63;;
75417;SDS011;63997;52.112;5.420;2023-07-13T08:13:15;13.25;;;6.50;;
75417;SDS011;63997;52.112;5.420;2023-07-13T08:15:42;15.25;;;6.18;;
75417;SDS011;63997;52.112;5.420;2023-07-13T08:18:09;13.40;;;5.40;;
75417;SDS011;63997;52.112;5.420;2023-07-13T08:20:38;13.63;;;5.90;;
75417;SDS011;63997;52.112;5.420;2023-07-13T08:23:06;10.32;;;5.75;;
75417;SDS011;63997;52.112;5.420;2023-07-13T08:25:34;18.33;;;6.80;;
75417;SDS011;63997;52.112;5.420;2023-07-13T08:28:02;13.95;;;5.47;;
75417;SDS011;63997;52.112;5.420;2023-07-13T08:30:29;12.82;;;4.68;;
75417;SDS011;63997;52.112;5.420;2023-07-13T08:32:55;13.27;;;4.80;;
75417;SDS011;63997;52.112;5.420;2023-07-13T08:35:22;8.70;;;4.50;;
75417;SDS011;63997;52.112;5.420;2023-07-13T08:37:48;10.63;;;4.50;;
75417;SDS011;63997;52.112;5.420;2023-07-13T08:40:24;11.48;;;3.83;;
75417;SDS011;63997;52.112;5.420;2023-07-13T08:42:56;11.40;;;3.88;;
75417;SDS011;63997;52.112;5.420;2023-07-13T08:45:34;10.67;;;3.27;;
75417;SDS011;63997;52.112;5.420;2023-07-13T08:48:43;7.47;;;2.90;;
75417;SDS011;63997;52.112;5.420;2023-07-13T08:53:51;7.15;;;1.90;;
75417;SDS011;63997;52.112;5.420;2023-07-13T08:56:24;3.78;;;1.80;;
75417;SDS011;63997;52.112;5.420;2023-07-13T08:58:57;4.33;;;1.70;;
75417;SDS011;63997;52.112;5.420;2023-07-13T09:01:33;3.53;;;1.27;;
75417;SDS011;63997;52.112;5.420;2023-07-13T09:04:24;4.57;;;1.30;;
75417;SDS011;63997;52.112;5.420;2023-07-13T09:15:30;4.47;;;1.80;;
75417;SDS011;63997;52.112;5.420;2023-07-13T09:18:44;4.25;;;2.05;;
75417;SDS011;63997;52.112;5.420;2023-07-13T09:21:12;5.13;;;1.70;;
75417;SDS011;63997;52.112;5.420;2023-07-13T09:23:44;5.53;;;2.00;;
75417;SDS011;63997;52.112;5.420;2023-07-13T09:26:18;4.37;;;1.77;;
75417;SDS011;63997;52.112;5.420;2023-07-13T09:28:51;6.38;;;1.60;;
75417;SDS011;63997;52.112;5.420;2023-07-13T09:31:30;6.80;;;1.75;;
75417;SDS011;63997;52.112;5.420;2023-07-13T09:34:00;2.80;;;1.60;;
75417;SDS011;63997;52.112;5.420;2023-07-13T09:36:28;8.02;;;2.05;;
75417;SDS011;63997;52.112;5.420;2023-07-13T09:44:10;5.45;;;1.80;;
75417;SDS011;63997;52.112;5.420;2023-07-13T09:46:45;7.05;;;1.67;;
75417;SDS011;63997;52.112;5.420;2023-07-13T09:49:18;3.88;;;1.60;;
75417;SDS011;63997;52.112;5.420;2023-07-13T09:51:44;6.40;;;1.83;;
75417;SDS011;63997;52.112;5.420;2023-07-13T09:54:21;4.40;;;1.25;;
75417;SDS011;63997;52.112;5.420;2023-07-13T09:56:57;6.85;;;1.55;;
75417;SDS011;63997;52.112;5.420;2023-07-13T09:59:34;11.45;;;1.45;;
75417;SDS011;63997;52.112;5.420;2023-07-13T10:02:08;5.22;;;1.55;;
75417;SDS011;63997;52.112;5.420;2023-07-13T10:07:31;7.15;;;1.83;;
75417;SDS011;63997;52.112;5.420;2023-07-13T10:10:00;2.75;;;1.27;;
75417;SDS011;63997;52.112;5.420;2023-07-13T10:12:29;4.38;;;1.70;;
75417;SDS011;63997;52.112;5.420;2023-07-13T10:15:01;4.72;;;1.70;;
75417;SDS011;63997;52.112;5.420;2023-07-13T10:17:49;3.23;;;1.40;;
75417;SDS011;63997;52.112;5.420;2023-07-13T10:20:17;3.38;;;1.67;;
75417;SDS011;63997;52.112;5.420;2023-07-13T10:23:02;3.38;;;1.67;;
75417;SDS011;63997;52.112;5.420;2023-07-13T10:25:37;4.38;;;1.58;;
75417;SDS011;63997;52.112;5.420;2023-07-13T10:28:22;4.78;;;1.58;;
75417;SDS011;63997;52.112;5.420;2023-07-13T10:30:49;2.90;;;1.77;;
75417;SDS011;63997;52.112;5.420;2023-07-13T10:33:19;4.15;;;2.08;;
75417;SDS011;63997;52.112;5.420;2023-07-13T10:35:49;3.50;;;1.65;;
75417;SDS011;63997;52.112;5.420;2023-07-13T10:38:23;5.80;;;1.73;;
75417;SDS011;63997;52.112;5.420;2023-07-13T10:43:25;3.30;;;1.20;;
75417;SDS011;63997;52.112;5.420;2023-07-13T10:45:57;4.47;;;1.70;;
75417;SDS011;63997;52.112;5.420;2023-07-13T10:48:25;3.70;;;1.65;;
75417;SDS011;63997;52.112;5.420;2023-07-13T10:50:52;5.88;;;1.60;;
75417;SDS011;63997;52.112;5.420;2023-07-13T10:53:21;4.30;;;1.83;;
75417;SDS011;63997;52.112;5.420;2023-07-13T10:55:57;3.70;;;1.40;;
75417;SDS011;63997;52.112;5.420;2023-07-13T11:03:37;2.50;;;1.33;;
75417;SDS011;63997;52.112;5.420;2023-07-13T11:18:47;4.60;;;1.42;;
75417;SDS011;63997;52.112;5.420;2023-07-13T11:21:19;4.50;;;1.40;;
75417;SDS011;63997;52.112;5.420;2023-07-13T11:24:03;3.63;;;1.33;;
75417;SDS011;63997;52.112;5.420;2023-07-13T11:26:43;3.20;;;1.63;;
75417;SDS011;63997;52.112;5.420;2023-07-13T11:31:54;2.47;;;1.40;;
75417;SDS011;63997;52.112;5.420;2023-07-13T11:34:36;6.40;;;2.03;;
75417;SDS011;63997;52.112;5.420;2023-07-13T11:37:08;3.00;;;1.40;;
75417;SDS011;63997;52.112;5.420;2023-07-13T11:39:41;4.20;;;1.63;;
75417;SDS011;63997;52.112;5.420;2023-07-13T11:42:13;7.65;;;2.15;;
75417;SDS011;63997;52.112;5.420;2023-07-13T11:44:43;4.80;;;1.42;;
75417;SDS011;63997;52.112;5.420;2023-07-13T11:47:32;4.60;;;2.07;;
75417;SDS011;63997;52.112;5.420;2023-07-13T11:49:59;3.67;;;1.73;;
75417;SDS011;63997;52.112;5.420;2023-07-13T11:52:28;2.05;;;1.52;;
75417;SDS011;63997;52.112;5.420;2023-07-13T11:55:00;5.00;;;1.70;;
75417;SDS011;63997;52.112;5.420;2023-07-13T11:57:36;2.60;;;1.80;;
75417;SDS011;63997;52.112;5.420;2023-07-13T12:00:15;5.47;;;1.67;;
75417;SDS011;63997;52.112;5.420;2023-07-13T12:02:53;3.88;;;2.33;;
75417;SDS011;63997;52.112;5.420;2023-07-13T12:05:22;4.88;;;1.90;;
75417;SDS011;63997;52.112;5.420;2023-07-13T12:07:49;5.10;;;2.03;;
75417;SDS011;63997;52.112;5.420;2023-07-13T12:10:20;3.47;;;2.30;;
75417;SDS011;63997;52.112;5.420;2023-07-13T12:12:52;4.63;;;2.30;;
75417;SDS011;63997;52.112;5.420;2023-07-13T12:15:23;7.35;;;2.30;;
75417;SDS011;63997;52.112;5.420;2023-07-13T12:17:55;4.07;;;2.25;;
75417;SDS011;63997;52.112;5.420;2023-07-13T12:20:26;5.38;;;1.80;;
75417;SDS011;63997;52.112;5.420;2023-07-13T12:22:56;5.97;;;2.53;;
75417;SDS011;63997;52.112;5.420;2023-07-13T12:25:28;5.40;;;2.13;;
75417;SDS011;63997;52.112;5.420;2023-07-13T12:27:56;4.68;;;2.03;;
75417;SDS011;63997;52.112;5.420;2023-07-13T12:33:06;8.07;;;1.98;;
75417;SDS011;63997;52.112;5.420;2023-07-13T12:35:41;10.65;;;2.65;;
75417;SDS011;63997;52.112;5.420;2023-07-13T12:38:11;5.07;;;1.73;;
75417;SDS011;63997;52.112;5.420;2023-07-13T12:40:38;6.32;;;1.95;;
75417;SDS011;63997;52.112;5.420;2023-07-13T12:43:12;4.57;;;1.85;;
75417;SDS011;63997;52.112;5.420;2023-07-13T12:45:54;6.55;;;2.13;;
75417;SDS011;63997;52.112;5.420;2023-07-13T12:48:22;6.68;;;2.40;;
75417;SDS011;63997;52.112;5.420;2023-07-13T12:51:08;7.07;;;1.80;;
75417;SDS011;63997;52.112;5.420;2023-07-13T12:53:41;3.10;;;1.70;;
75417;SDS011;63997;52.112;5.420;2023-07-13T12:56:17;5.43;;;1.60;;
75417;SDS011;63997;52.112;5.420;2023-07-13T12:58:47;5.00;;;1.40;;
75417;SDS011;63997;52.112;5.420;2023-07-13T13:01:21;2.38;;;1.65;;
75417;SDS011;63997;52.112;5.420;2023-07-13T13:03:50;4.57;;;1.70;;
75417;SDS011;63997;52.112;5.420;2023-07-13T13:08:46;4.38;;;1.48;;
75417;SDS011;63997;52.112;5.420;2023-07-13T13:11:15;2.95;;;1.30;;
75417;SDS011;63997;52.112;5.420;2023-07-13T13:13:42;4.10;;;1.70;;
75417;SDS011;63997;52.112;5.420;2023-07-13T13:18:51;5.68;;;1.83;;
75417;SDS011;63997;52.112;5.420;2023-07-13T13:21:20;4.25;;;1.98;;
75417;SDS011;63997;52.112;5.420;2023-07-13T13:23:47;3.35;;;1.25;;
75417;SDS011;63997;52.112;5.420;2023-07-13T13:26:14;3.28;;;1.92;;
75417;SDS011;63997;52.112;5.420;2023-07-13T13:28:44;2.23;;;1.40;;
75417;SDS011;63997;52.112;5.420;2023-07-13T13:31:12;3.03;;;1.52;;
75417;SDS011;63997;52.112;5.420;2023-07-13T13:33:40;3.60;;;1.50;;
75417;SDS011;63997;52.112;5.420;2023-07-13T13:36:13;7.30;;;2.53;;
75417;SDS011;63997;52.112;5.420;2023-07-13T13:38:43;1.80;;;1.30;;
75417;SDS011;63997;52.112;5.420;2023-07-13T13:41:11;3.73;;;1.37;;
75417;SDS011;63997;52.112;5.420;2023-07-13T13:43:39;5.60;;;1.33;;
75417;SDS011;63997;52.112;5.420;2023-07-13T13:46:24;2.95;;;1.50;;
75417;SDS011;63997;52.112;5.420;2023-07-13T13:48:51;2.78;;;1.50;;
75417;SDS011;63997;52.112;5.420;2023-07-13T13:51:21;2.63;;;1.50;;
75417;SDS011;63997;52.112;5.420;2023-07-13T13:53:49;4.13;;;1.83;;
75417;SDS011;63997;52.112;5.420;2023-07-13T13:56:17;6.80;;;1.92;;
75417;SDS011;63997;52.112;5.420;2023-07-13T13:58:45;3.92;;;1.60;;
75417;SDS011;63997;52.112;5.420;2023-07-13T14:01:30;3.97;;;1.73;;
75417;SDS011;63997;52.112;5.420;2023-07-13T14:03:57;3.53;;;1.73;;
75417;SDS011;63997;52.112;5.420;2023-07-13T14:06:25;4.50;;;1.57;;
75417;SDS011;63997;52.112;5.420;2023-07-13T14:08:51;2.05;;;1.15;;
75417;SDS011;63997;52.112;5.420;2023-07-13T14:11:18;4.10;;;1.77;;
75417;SDS011;63997;52.112;5.420;2023-07-13T14:13:50;3.83;;;1.60;;
75417;SDS011;63997;52.112;5.420;2023-07-13T14:16:19;5.80;;;1.90;;
75417;SDS011;63997;52.112;5.420;2023-07-13T14:18:49;4.07;;;1.83;;
75417;SDS011;63997;52.112;5.420;2023-07-13T14:21:19;5.82;;;2.17;;
75417;SDS011;63997;52.112;5.420;2023-07-13T14:23:48;3.25;;;1.90;;
75417;SDS011;63997;52.112;5.420;2023-07-13T14:26:16;3.75;;;1.73;;
75417;SDS011;63997;52.112;5.420;2023-07-13T14:28:46;4.32;;;1.73;;
75417;SDS011;63997;52.112;5.420;2023-07-13T14:31:15;3.77;;;1.67;;
75417;SDS011;63997;52.112;5.420;2023-07-13T14:33:43;3.72;;;1.63;;
75417;SDS011;63997;52.112;5.420;2023-07-13T14:38:57;3.65;;;1.63;;
75417;SDS011;63997;52.112;5.420;2023-07-13T14:41:25;3.78;;;1.50;;
75417;SDS011;63997;52.112;5.420;2023-07-13T14:43:52;2.07;;;1.37;;
75417;SDS011;63997;52.112;5.420;2023-07-13T14:46:28;4.82;;;1.60;;
75417;SDS011;63997;52.112;5.420;2023-07-13T14:49:02;4.93;;;1.48;;
75417;SDS011;63997;52.112;5.420;2023-07-13T14:51:31;6.68;;;1.90;;
75417;SDS011;63997;52.112;5.420;2023-07-13T14:54:01;3.08;;;1.58;;
75417;SDS011;63997;52.112;5.420;2023-07-13T14:56:30;6.83;;;1.67;;
75417;SDS011;63997;52.112;5.420;2023-07-13T14:58:56;6.03;;;1.58;;
75417;SDS011;63997;52.112;5.420;2023-07-13T15:01:23;4.18;;;1.50;;
75417;SDS011;63997;52.112;5.420;2023-07-13T15:03:51;3.72;;;1.45;;
75417;SDS011;63997;52.112;5.420;2023-07-13T15:06:19;2.72;;;1.02;;
75417;SDS011;63997;52.112;5.420;2023-07-13T15:08:46;5.37;;;1.40;;
75417;SDS011;63997;52.112;5.420;2023-07-13T15:11:12;2.50;;;1.00;;
75417;SDS011;63997;52.112;5.420;2023-07-13T15:13:39;4.03;;;1.35;;
75417;SDS011;63997;52.112;5.420;2023-07-13T15:16:13;3.15;;;0.98;;
75417;SDS011;63997;52.112;5.420;2023-07-13T15:18:43;5.47;;;1.30;;
75417;SDS011;63997;52.112;5.420;2023-07-13T15:21:11;3.60;;;1.43;;
75417;SDS011;63997;52.112;5.420;2023-07-13T15:23:46;3.45;;;1.30;;
75417;SDS011;63997;52.112;5.420;2023-07-13T15:26:13;6.18;;;1.48;;
75417;SDS011;63997;52.112;5.420;2023-07-13T15:28:41;4.55;;;1.23;;
75417;SDS011;63997;52.112;5.420;2023-07-13T15:31:19;4.95;;;1.35;;
75417;SDS011;63997;52.112;5.420;2023-07-13T15:33:49;2.43;;;1.10;;
75417;SDS011;63997;52.112;5.420;2023-07-13T15:36:17;5.47;;;1.33;;
75417;SDS011;63997;52.112;5.420;2023-07-13T15:38:44;4.22;;;1.50;;
75417;SDS011;63997;52.112;5.420;2023-07-13T15:41:20;4.10;;;1.13;;
75417;SDS011;63997;52.112;5.420;2023-07-13T15:43:49;3.80;;;1.40;;
75417;SDS011;63997;52.112;5.420;2023-07-13T15:46:17;3.47;;;1.20;;
75417;SDS011;63997;52.112;5.420;2023-07-13T15:48:45;4.75;;;1.17;;
75417;SDS011;63997;52.112;5.420;2023-07-13T15:51:34;2.50;;;1.23;;
75417;SDS011;63997;52.112;5.420;2023-07-13T15:54:00;3.80;;;1.27;;